Wednesday, October 18, 2017, 6:08 PM EDT
Back to Local

KITH, Ithaca, Ithaca Tompkins Regional Airport

Location: Ithaca, NY, United States Lat: 42.491
Local Time: 6:08 PM EDT (22:08 GMT) Lon: -76.458
Time Zone: US/Eastern Elev: 1099 ft

Show me the last for .
Show Decoded

2017-10-18 16:56 METAR KITH 182056Z 22004KT 10SM CLR 21/07 A3022 RMK AO2 SLP230 T02060067 56015 =
2017-10-18 15:56 METAR KITH 181956Z 18004KT 10SM CLR 21/07 A3023 RMK AO2 SLP236 T02110072 =
2017-10-18 14:56 METAR KITH 181856Z 26005KT 10SM CLR 21/06 A3025 RMK AO2 SLP241 T02060061 =
2017-10-18 13:56 METAR KITH 181756Z 22004KT 10SM CLR 21/07 A3026 RMK AO2 SLP247 T02060067 10206
                 20050 58015 =
2017-10-18 12:56 METAR KITH 181656Z 25004KT 10SM CLR 19/07 A3029 RMK AO2 SLP257 T01940072 =
2017-10-18 11:56 METAR KITH 181556Z VRB03KT 10SM CLR 18/07 A3031 RMK AO2 SLP265 T01780072 =
2017-10-18 10:56 METAR KITH 181456Z VRB03KT 10SM CLR 16/08 A3031 RMK AO2 SLP265 T01610078 50006 =
2017-10-18 09:56 METAR KITH 181356Z 19004KT 10SM CLR 14/07 A3032 RMK AO2 SLP268 T01440067 =
2017-10-18 08:56 METAR KITH 181256Z 17003KT 10SM CLR 11/06 A3031 RMK AO2 SLP266 T01110061 =
2017-10-18 07:56 METAR KITH 181156Z 12003KT 10SM CLR 05/04 A3029 RMK AO2 SLP264 T00500039 10122
                 20044 51016 =
2017-10-18 06:56 METAR KITH 181056Z 23004KT 10SM CLR 08/04 A3028 RMK AO2 SLP257 T00780039 =
2017-10-18 06:30 METAR KITH 181030Z 24004KT 10SM CLR 09/05 A3027 RMK AO2 =
2017-10-18 05:56 METAR KITH 180956Z AUTO 27005KT 10SM CLR 10/04 A3026 RMK AO2 SLP249 T01000044 =
2017-10-18 04:56 METAR KITH 180856Z AUTO 23003KT 10SM CLR 12/05 A3024 RMK AO2 SLP241 T01170050
                 53007 =
2017-10-18 03:56 METAR KITH 180756Z AUTO 24005KT 10SM CLR 11/04 A3023 RMK AO2 SLP237 T01110039 =
2017-10-18 02:56 METAR KITH 180656Z AUTO VRB04KT 10SM CLR 11/04 A3022 RMK AO2 SLP235 T01060039 =
2017-10-18 01:56 METAR KITH 180556Z AUTO VRB06KT 10SM CLR 09/04 A3022 RMK AO2 SLP235 T00940039
                 10111 20061 58000 =
2017-10-18 00:56 METAR KITH 180456Z AUTO 00000KT 10SM CLR 08/03 A3022 RMK AO2 SLP237 T00830033 =
2017-10-17 23:56 METAR KITH 180356Z AUTO 21004KT 10SM CLR 10/03 A3022 RMK AO2 SLP237 T01000033
                 401561028 =
2017-10-17 22:56 METAR KITH 180256Z AUTO 18004KT 10SM CLR 09/03 A3022 RMK AO2 SLP237 T00940028
                 53014 =
2017-10-17 21:56 METAR KITH 180156Z 18005KT 10SM CLR 10/03 A3021 RMK AO2 SLP234 T01000028 =
2017-10-17 20:56 METAR KITH 180056Z 19008KT 10SM CLR 11/02 A3019 RMK AO2 SLP229 T01060022 =
2017-10-17 19:56 METAR KITH 172356Z 17005KT 10SM CLR 09/02 A3018 RMK AO2 SLP228 T00890022 10156
                 20089 55000 =
2017-10-17 18:56 METAR KITH 172256Z 16006KT 10SM CLR 09/03 A3017 RMK AO2 SLP226 T00940028 =

Support USWX by starting your Amazon purchase here.